sensor_id;sensor_type;location;lat;lon;timestamp;P1;durP1;ratioP1;P2;durP2;ratioP2
2558;SDS011;1289;53.488;10.006;2023-12-04T00:01:12;34.58;;;18.65;;
2558;SDS011;1289;53.488;10.006;2023-12-04T00:03:38;26.50;;;17.30;;
2558;SDS011;1289;53.488;10.006;2023-12-04T00:06:05;29.80;;;18.33;;
2558;SDS011;1289;53.488;10.006;2023-12-04T00:08:32;27.38;;;16.73;;
2558;SDS011;1289;53.488;10.006;2023-12-04T00:11:00;29.30;;;16.73;;
2558;SDS011;1289;53.488;10.006;2023-12-04T00:13:27;28.90;;;17.83;;
2558;SDS011;1289;53.488;10.006;2023-12-04T00:15:53;26.33;;;16.33;;
2558;SDS011;1289;53.488;10.006;2023-12-04T00:18:20;32.13;;;16.60;;
2558;SDS011;1289;53.488;10.006;2023-12-04T00:20:46;26.35;;;16.13;;
2558;SDS011;1289;53.488;10.006;2023-12-04T00:23:13;29.95;;;18.55;;
2558;SDS011;1289;53.488;10.006;2023-12-04T00:25:39;30.97;;;18.20;;
2558;SDS011;1289;53.488;10.006;2023-12-04T00:28:07;24.02;;;16.65;;
2558;SDS011;1289;53.488;10.006;2023-12-04T00:30:34;31.37;;;16.27;;
2558;SDS011;1289;53.488;10.006;2023-12-04T00:33:01;30.73;;;17.20;;
2558;SDS011;1289;53.488;10.006;2023-12-04T00:35:27;27.87;;;16.77;;
2558;SDS011;1289;53.488;10.006;2023-12-04T00:37:54;25.98;;;17.27;;
2558;SDS011;1289;53.488;10.006;2023-12-04T00:40:21;25.90;;;17.42;;
2558;SDS011;1289;53.488;10.006;2023-12-04T00:42:48;28.05;;;16.17;;
2558;SDS011;1289;53.488;10.006;2023-12-04T00:45:16;23.88;;;15.85;;
2558;SDS011;1289;53.488;10.006;2023-12-04T00:47:42;28.63;;;17.88;;
2558;SDS011;1289;53.488;10.006;2023-12-04T00:50:10;31.25;;;18.90;;
2558;SDS011;1289;53.488;10.006;2023-12-04T00:52:37;23.92;;;15.52;;
2558;SDS011;1289;53.488;10.006;2023-12-04T00:55:04;25.52;;;16.52;;
2558;SDS011;1289;53.488;10.006;2023-12-04T00:57:31;25.27;;;16.80;;
2558;SDS011;1289;53.488;10.006;2023-12-04T00:59:58;23.10;;;16.48;;
2558;SDS011;1289;53.488;10.006;2023-12-04T01:02:26;25.25;;;17.10;;
2558;SDS011;1289;53.488;10.006;2023-12-04T01:04:52;24.75;;;15.70;;
2558;SDS011;1289;53.488;10.006;2023-12-04T01:07:19;21.77;;;16.60;;
2558;SDS011;1289;53.488;10.006;2023-12-04T01:09:46;24.17;;;16.33;;
2558;SDS011;1289;53.488;10.006;2023-12-04T01:12:12;26.08;;;16.48;;
2558;SDS011;1289;53.488;10.006;2023-12-04T01:14:39;28.20;;;17.87;;
2558;SDS011;1289;53.488;10.006;2023-12-04T01:17:05;25.33;;;16.65;;
2558;SDS011;1289;53.488;10.006;2023-12-04T01:19:34;27.90;;;16.58;;
2558;SDS011;1289;53.488;10.006;2023-12-04T01:22:00;20.60;;;15.80;;
2558;SDS011;1289;53.488;10.006;2023-12-04T01:24:27;29.58;;;17.58;;
2558;SDS011;1289;53.488;10.006;2023-12-04T01:26:53;28.38;;;16.38;;
2558;SDS011;1289;53.488;10.006;2023-12-04T01:29:20;26.95;;;16.27;;
2558;SDS011;1289;53.488;10.006;2023-12-04T01:31:46;24.52;;;14.57;;
2558;SDS011;1289;53.488;10.006;2023-12-04T01:34:13;26.55;;;15.43;;
2558;SDS011;1289;53.488;10.006;2023-12-04T01:36:41;24.05;;;16.23;;
2558;SDS011;1289;53.488;10.006;2023-12-04T01:39:08;23.58;;;15.20;;
2558;SDS011;1289;53.488;10.006;2023-12-04T01:41:34;24.35;;;15.60;;
2558;SDS011;1289;53.488;10.006;2023-12-04T01:44:01;21.58;;;14.95;;
2558;SDS011;1289;53.488;10.006;2023-12-04T01:46:27;19.10;;;15.53;;
2558;SDS011;1289;53.488;10.006;2023-12-04T01:48:54;25.67;;;15.60;;
2558;SDS011;1289;53.488;10.006;2023-12-04T01:51:21;20.75;;;14.38;;
2558;SDS011;1289;53.488;10.006;2023-12-04T01:53:49;21.08;;;16.83;;
2558;SDS011;1289;53.488;10.006;2023-12-04T01:56:16;23.60;;;15.50;;
2558;SDS011;1289;53.488;10.006;2023-12-04T01:58:43;23.90;;;16.55;;
2558;SDS011;1289;53.488;10.006;2023-12-04T02:01:10;24.33;;;16.00;;
2558;SDS011;1289;53.488;10.006;2023-12-04T02:03:37;19.30;;;14.50;;
2558;SDS011;1289;53.488;10.006;2023-12-04T02:06:04;29.33;;;16.98;;
2558;SDS011;1289;53.488;10.006;2023-12-04T02:08:30;28.67;;;16.80;;
2558;SDS011;1289;53.488;10.006;2023-12-04T02:10:58;20.05;;;14.85;;
2558;SDS011;1289;53.488;10.006;2023-12-04T02:13:25;30.92;;;17.08;;
2558;SDS011;1289;53.488;10.006;2023-12-04T02:15:53;23.90;;;15.25;;
2558;SDS011;1289;53.488;10.006;2023-12-04T02:18:20;23.30;;;15.48;;
2558;SDS011;1289;53.488;10.006;2023-12-04T02:20:47;28.25;;;16.05;;
2558;SDS011;1289;53.488;10.006;2023-12-04T02:23:14;21.30;;;15.93;;
2558;SDS011;1289;53.488;10.006;2023-12-04T02:25:42;29.77;;;16.63;;
2558;SDS011;1289;53.488;10.006;2023-12-04T02:28:09;22.83;;;17.05;;
2558;SDS011;1289;53.488;10.006;2023-12-04T02:30:37;24.75;;;16.83;;
2558;SDS011;1289;53.488;10.006;2023-12-04T02:33:05;26.38;;;16.48;;
2558;SDS011;1289;53.488;10.006;2023-12-04T02:35:33;26.33;;;17.08;;
2558;SDS011;1289;53.488;10.006;2023-12-04T02:38:00;22.23;;;14.40;;
2558;SDS011;1289;53.488;10.006;2023-12-04T02:40:27;26.63;;;17.70;;
2558;SDS011;1289;53.488;10.006;2023-12-04T02:42:55;29.80;;;19.27;;
2558;SDS011;1289;53.488;10.006;2023-12-04T02:45:23;20.33;;;14.82;;
2558;SDS011;1289;53.488;10.006;2023-12-04T02:47:49;24.40;;;15.90;;
2558;SDS011;1289;53.488;10.006;2023-12-04T02:50:16;22.13;;;14.80;;
2558;SDS011;1289;53.488;10.006;2023-12-04T02:52:42;25.27;;;16.50;;
2558;SDS011;1289;53.488;10.006;2023-12-04T02:55:09;22.63;;;16.55;;
2558;SDS011;1289;53.488;10.006;2023-12-04T02:57:35;27.05;;;16.30;;
2558;SDS011;1289;53.488;10.006;2023-12-04T03:00:04;27.42;;;16.33;;
2558;SDS011;1289;53.488;10.006;2023-12-04T03:02:32;22.75;;;15.32;;
2558;SDS011;1289;53.488;10.006;2023-12-04T03:04:58;25.17;;;16.35;;
2558;SDS011;1289;53.488;10.006;2023-12-04T03:07:25;25.55;;;16.45;;
2558;SDS011;1289;53.488;10.006;2023-12-04T03:09:52;25.88;;;16.95;;
2558;SDS011;1289;53.488;10.006;2023-12-04T03:12:18;24.85;;;16.80;;
2558;SDS011;1289;53.488;10.006;2023-12-04T03:14:45;27.70;;;18.10;;
2558;SDS011;1289;53.488;10.006;2023-12-04T03:17:13;28.90;;;17.25;;
2558;SDS011;1289;53.488;10.006;2023-12-04T03:19:40;29.77;;;18.08;;
2558;SDS011;1289;53.488;10.006;2023-12-04T03:22:06;22.92;;;15.68;;
2558;SDS011;1289;53.488;10.006;2023-12-04T03:24:33;25.97;;;16.57;;
2558;SDS011;1289;53.488;10.006;2023-12-04T03:26:59;26.27;;;16.42;;
2558;SDS011;1289;53.488;10.006;2023-12-04T03:29:26;27.25;;;17.67;;
2558;SDS011;1289;53.488;10.006;2023-12-04T03:31:53;22.55;;;16.00;;
2558;SDS011;1289;53.488;10.006;2023-12-04T03:34:21;26.23;;;16.67;;
2558;SDS011;1289;53.488;10.006;2023-12-04T03:36:47;27.23;;;16.00;;
2558;SDS011;1289;53.488;10.006;2023-12-04T03:39:14;22.87;;;16.10;;
2558;SDS011;1289;53.488;10.006;2023-12-04T03:41:40;22.15;;;15.32;;
2558;SDS011;1289;53.488;10.006;2023-12-04T03:44:07;25.75;;;16.40;;
2558;SDS011;1289;53.488;10.006;2023-12-04T03:46:33;20.20;;;14.43;;
2558;SDS011;1289;53.488;10.006;2023-12-04T03:49:00;21.67;;;14.82;;
2558;SDS011;1289;53.488;10.006;2023-12-04T03:51:28;24.15;;;16.25;;
2558;SDS011;1289;53.488;10.006;2023-12-04T03:53:55;31.98;;;16.48;;
2558;SDS011;1289;53.488;10.006;2023-12-04T03:56:21;26.33;;;15.10;;
2558;SDS011;1289;53.488;10.006;2023-12-04T03:58:48;25.90;;;16.60;;
2558;SDS011;1289;53.488;10.006;2023-12-04T04:01:14;24.33;;;16.05;;
2558;SDS011;1289;53.488;10.006;2023-12-04T04:03:41;26.15;;;17.23;;
2558;SDS011;1289;53.488;10.006;2023-12-04T04:06:08;26.38;;;16.77;;
2558;SDS011;1289;53.488;10.006;2023-12-04T04:08:37;21.90;;;14.52;;
2558;SDS011;1289;53.488;10.006;2023-12-04T04:11:03;25.17;;;16.00;;
2558;SDS011;1289;53.488;10.006;2023-12-04T04:13:30;26.98;;;14.43;;
2558;SDS011;1289;53.488;10.006;2023-12-04T04:15:56;26.60;;;16.00;;
2558;SDS011;1289;53.488;10.006;2023-12-04T04:18:23;21.63;;;15.13;;
2558;SDS011;1289;53.488;10.006;2023-12-04T04:20:49;23.60;;;16.90;;
2558;SDS011;1289;53.488;10.006;2023-12-04T04:23:16;22.65;;;15.80;;
2558;SDS011;1289;53.488;10.006;2023-12-04T04:25:44;29.17;;;15.82;;
2558;SDS011;1289;53.488;10.006;2023-12-04T04:28:10;23.35;;;15.98;;
2558;SDS011;1289;53.488;10.006;2023-12-04T04:30:37;21.38;;;14.90;;
2558;SDS011;1289;53.488;10.006;2023-12-04T04:33:05;24.10;;;15.95;;
2558;SDS011;1289;53.488;10.006;2023-12-04T04:35:31;20.00;;;14.70;;
2558;SDS011;1289;53.488;10.006;2023-12-04T04:37:58;23.33;;;15.65;;
2558;SDS011;1289;53.488;10.006;2023-12-04T04:40:24;23.65;;;17.15;;
2558;SDS011;1289;53.488;10.006;2023-12-04T04:42:52;23.58;;;15.55;;
2558;SDS011;1289;53.488;10.006;2023-12-04T04:45:19;26.55;;;14.68;;
2558;SDS011;1289;53.488;10.006;2023-12-04T04:47:45;23.63;;;15.85;;
2558;SDS011;1289;53.488;10.006;2023-12-04T04:50:12;22.48;;;14.88;;
2558;SDS011;1289;53.488;10.006;2023-12-04T04:52:39;25.23;;;15.48;;
2558;SDS011;1289;53.488;10.006;2023-12-04T04:55:05;22.17;;;13.73;;
2558;SDS011;1289;53.488;10.006;2023-12-04T04:57:33;23.00;;;14.52;;
2558;SDS011;1289;53.488;10.006;2023-12-04T05:00:01;19.35;;;15.00;;
2558;SDS011;1289;53.488;10.006;2023-12-04T05:02:27;23.42;;;14.57;;
2558;SDS011;1289;53.488;10.006;2023-12-04T05:04:54;20.58;;;14.02;;
2558;SDS011;1289;53.488;10.006;2023-12-04T05:07:20;23.50;;;15.48;;
2558;SDS011;1289;53.488;10.006;2023-12-04T05:09:47;23.05;;;14.65;;
2558;SDS011;1289;53.488;10.006;2023-12-04T05:12:14;24.45;;;14.85;;
2558;SDS011;1289;53.488;10.006;2023-12-04T05:14:40;26.05;;;14.38;;
2558;SDS011;1289;53.488;10.006;2023-12-04T05:17:08;31.63;;;16.65;;
2558;SDS011;1289;53.488;10.006;2023-12-04T05:19:35;25.58;;;16.45;;
2558;SDS011;1289;53.488;10.006;2023-12-04T05:22:01;26.40;;;13.82;;
2558;SDS011;1289;53.488;10.006;2023-12-04T05:24:28;21.73;;;15.55;;
2558;SDS011;1289;53.488;10.006;2023-12-04T05:26:55;27.35;;;15.75;;
2558;SDS011;1289;53.488;10.006;2023-12-04T05:29:21;24.48;;;16.52;;
2558;SDS011;1289;53.488;10.006;2023-12-04T05:31:48;20.45;;;13.70;;
2558;SDS011;1289;53.488;10.006;2023-12-04T05:34:16;25.50;;;14.75;;
2558;SDS011;1289;53.488;10.006;2023-12-04T05:36:42;23.15;;;15.50;;
2558;SDS011;1289;53.488;10.006;2023-12-04T05:39:09;25.88;;;15.43;;
2558;SDS011;1289;53.488;10.006;2023-12-04T05:41:35;23.30;;;15.15;;
2558;SDS011;1289;53.488;10.006;2023-12-04T05:44:02;25.67;;;15.52;;
2558;SDS011;1289;53.488;10.006;2023-12-04T05:46:29;19.27;;;13.15;;
2558;SDS011;1289;53.488;10.006;2023-12-04T05:48:55;19.85;;;14.45;;
2558;SDS011;1289;53.488;10.006;2023-12-04T05:51:23;25.43;;;15.47;;
2558;SDS011;1289;53.488;10.006;2023-12-04T05:53:50;23.67;;;14.82;;
2558;SDS011;1289;53.488;10.006;2023-12-04T05:56:16;21.17;;;13.63;;
2558;SDS011;1289;53.488;10.006;2023-12-04T05:58:43;24.85;;;15.75;;
2558;SDS011;1289;53.488;10.006;2023-12-04T06:01:09;23.40;;;15.80;;
2558;SDS011;1289;53.488;10.006;2023-12-04T06:03:36;22.17;;;14.73;;
2558;SDS011;1289;53.488;10.006;2023-12-04T06:06:03;23.95;;;14.93;;
2558;SDS011;1289;53.488;10.006;2023-12-04T06:08:31;23.00;;;15.30;;
2558;SDS011;1289;53.488;10.006;2023-12-04T06:10:58;20.73;;;15.23;;
2558;SDS011;1289;53.488;10.006;2023-12-04T06:13:24;26.83;;;16.20;;
2558;SDS011;1289;53.488;10.006;2023-12-04T06:15:51;26.15;;;16.52;;
2558;SDS011;1289;53.488;10.006;2023-12-04T06:18:18;25.13;;;15.32;;
2558;SDS011;1289;53.488;10.006;2023-12-04T06:20:45;22.92;;;15.38;;
2558;SDS011;1289;53.488;10.006;2023-12-04T06:23:12;21.23;;;14.70;;
2558;SDS011;1289;53.488;10.006;2023-12-04T06:25:41;25.85;;;14.80;;
2558;SDS011;1289;53.488;10.006;2023-12-04T06:28:08;19.13;;;15.30;;
2558;SDS011;1289;53.488;10.006;2023-12-04T06:30:36;24.20;;;16.08;;
2558;SDS011;1289;53.488;10.006;2023-12-04T06:33:03;26.38;;;17.65;;
2558;SDS011;1289;53.488;10.006;2023-12-04T06:35:30;26.42;;;17.85;;
2558;SDS011;1289;53.488;10.006;2023-12-04T06:37:57;28.92;;;17.23;;
2558;SDS011;1289;53.488;10.006;2023-12-04T06:40:26;27.42;;;16.92;;
2558;SDS011;1289;53.488;10.006;2023-12-04T06:42:55;29.98;;;17.08;;
2558;SDS011;1289;53.488;10.006;2023-12-04T06:45:22;31.23;;;17.80;;
2558;SDS011;1289;53.488;10.006;2023-12-04T06:47:49;29.42;;;15.98;;
2558;SDS011;1289;53.488;10.006;2023-12-04T06:50:17;27.23;;;16.95;;
2558;SDS011;1289;53.488;10.006;2023-12-04T06:52:44;24.23;;;16.05;;
2558;SDS011;1289;53.488;10.006;2023-12-04T06:55:10;26.23;;;17.73;;
2558;SDS011;1289;53.488;10.006;2023-12-04T06:57:37;31.27;;;19.10;;
2558;SDS011;1289;53.488;10.006;2023-12-04T07:00:07;25.67;;;17.25;;
2558;SDS011;1289;53.488;10.006;2023-12-04T07:02:37;26.08;;;15.93;;
2558;SDS011;1289;53.488;10.006;2023-12-04T07:05:04;25.75;;;16.20;;
2558;SDS011;1289;53.488;10.006;2023-12-04T07:07:31;27.30;;;16.40;;
2558;SDS011;1289;53.488;10.006;2023-12-04T07:09:58;26.05;;;17.15;;
2558;SDS011;1289;53.488;10.006;2023-12-04T07:12:24;27.67;;;16.52;;
2558;SDS011;1289;53.488;10.006;2023-12-04T07:14:51;24.35;;;16.42;;
2558;SDS011;1289;53.488;10.006;2023-12-04T07:17:19;26.42;;;15.70;;
2558;SDS011;1289;53.488;10.006;2023-12-04T07:19:47;32.30;;;16.40;;
2558;SDS011;1289;53.488;10.006;2023-12-04T07:22:13;31.13;;;17.65;;
2558;SDS011;1289;53.488;10.006;2023-12-04T07:24:40;26.92;;;18.33;;
2558;SDS011;1289;53.488;10.006;2023-12-04T07:27:06;28.25;;;16.35;;
2558;SDS011;1289;53.488;10.006;2023-12-04T07:29:34;28.52;;;15.50;;
2558;SDS011;1289;53.488;10.006;2023-12-04T07:32:03;27.20;;;15.65;;
2558;SDS011;1289;53.488;10.006;2023-12-04T07:34:31;22.75;;;16.70;;
2558;SDS011;1289;53.488;10.006;2023-12-04T07:36:58;29.92;;;18.75;;
2558;SDS011;1289;53.488;10.006;2023-12-04T07:39:24;29.77;;;18.60;;
2558;SDS011;1289;53.488;10.006;2023-12-04T07:41:51;27.50;;;18.50;;
2558;SDS011;1289;53.488;10.006;2023-12-04T07:44:18;28.63;;;18.27;;
2558;SDS011;1289;53.488;10.006;2023-12-04T07:46:44;27.00;;;16.75;;
2558;SDS011;1289;53.488;10.006;2023-12-04T07:49:11;28.02;;;17.85;;
2558;SDS011;1289;53.488;10.006;2023-12-04T07:51:39;30.38;;;17.35;;
2558;SDS011;1289;53.488;10.006;2023-12-04T07:54:06;28.60;;;16.90;;
2558;SDS011;1289;53.488;10.006;2023-12-04T07:56:32;27.48;;;16.90;;
2558;SDS011;1289;53.488;10.006;2023-12-04T07:58:59;27.02;;;18.30;;
2558;SDS011;1289;53.488;10.006;2023-12-04T08:01:25;28.70;;;18.73;;
2558;SDS011;1289;53.488;10.006;2023-12-04T08:03:52;34.30;;;17.35;;
2558;SDS011;1289;53.488;10.006;2023-12-04T08:06:18;24.92;;;16.40;;
2558;SDS011;1289;53.488;10.006;2023-12-04T08:08:47;31.42;;;19.33;;
2558;SDS011;1289;53.488;10.006;2023-12-04T08:11:14;31.88;;;17.88;;
2558;SDS011;1289;53.488;10.006;2023-12-04T08:13:40;31.88;;;18.13;;
2558;SDS011;1289;53.488;10.006;2023-12-04T08:16:12;28.30;;;17.20;;
2558;SDS011;1289;53.488;10.006;2023-12-04T08:18:40;31.90;;;16.73;;
2558;SDS011;1289;53.488;10.006;2023-12-04T08:21:06;36.45;;;20.67;;
2558;SDS011;1289;53.488;10.006;2023-12-04T08:23:34;32.58;;;18.55;;
2558;SDS011;1289;53.488;10.006;2023-12-04T08:26:02;27.00;;;17.38;;
2558;SDS011;1289;53.488;10.006;2023-12-04T08:28:29;28.55;;;18.13;;
2558;SDS011;1289;53.488;10.006;2023-12-04T08:30:56;30.13;;;19.63;;
2558;SDS011;1289;53.488;10.006;2023-12-04T08:33:22;29.58;;;18.75;;
2558;SDS011;1289;53.488;10.006;2023-12-04T08:35:49;26.77;;;16.97;;
2558;SDS011;1289;53.488;10.006;2023-12-04T08:38:16;34.58;;;16.23;;
2558;SDS011;1289;53.488;10.006;2023-12-04T08:40:42;34.00;;;20.38;;
2558;SDS011;1289;53.488;10.006;2023-12-04T08:43:10;38.97;;;20.15;;
2558;SDS011;1289;53.488;10.006;2023-12-04T08:45:37;36.22;;;18.70;;
2558;SDS011;1289;53.488;10.006;2023-12-04T08:48:04;28.52;;;18.70;;
2558;SDS011;1289;53.488;10.006;2023-12-04T08:50:31;31.88;;;18.38;;
2558;SDS011;1289;53.488;10.006;2023-12-04T08:52:57;34.20;;;17.37;;
2558;SDS011;1289;53.488;10.006;2023-12-04T08:55:24;35.60;;;20.40;;
2558;SDS011;1289;53.488;10.006;2023-12-04T08:57:50;32.00;;;19.98;;
2558;SDS011;1289;53.488;10.006;2023-12-04T09:00:18;40.83;;;22.13;;
2558;SDS011;1289;53.488;10.006;2023-12-04T09:02:45;34.85;;;18.45;;
2558;SDS011;1289;53.488;10.006;2023-12-04T09:05:13;40.60;;;20.67;;
2558;SDS011;1289;53.488;10.006;2023-12-04T09:07:40;31.95;;;21.30;;
2558;SDS011;1289;53.488;10.006;2023-12-04T09:10:06;37.83;;;21.40;;
2558;SDS011;1289;53.488;10.006;2023-12-04T09:12:34;33.63;;;18.40;;
2558;SDS011;1289;53.488;10.006;2023-12-04T09:15:03;29.60;;;17.93;;
2558;SDS011;1289;53.488;10.006;2023-12-04T09:17:31;33.60;;;17.60;;
2558;SDS011;1289;53.488;10.006;2023-12-04T09:19:58;43.53;;;22.47;;
2558;SDS011;1289;53.488;10.006;2023-12-04T09:22:24;26.13;;;16.93;;
2558;SDS011;1289;53.488;10.006;2023-12-04T09:24:51;38.50;;;18.30;;
2558;SDS011;1289;53.488;10.006;2023-12-04T09:27:18;34.73;;;20.30;;
2558;SDS011;1289;53.488;10.006;2023-12-04T09:29:44;38.93;;;19.90;;
2558;SDS011;1289;53.488;10.006;2023-12-04T09:32:11;33.37;;;18.30;;
2558;SDS011;1289;53.488;10.006;2023-12-04T09:34:39;34.47;;;19.97;;
2558;SDS011;1289;53.488;10.006;2023-12-04T09:37:06;32.73;;;19.70;;
2558;SDS011;1289;53.488;10.006;2023-12-04T09:39:33;29.70;;;19.07;;
2558;SDS011;1289;53.488;10.006;2023-12-04T09:42:00;32.77;;;19.00;;
2558;SDS011;1289;53.488;10.006;2023-12-04T09:44:28;37.20;;;19.33;;
2558;SDS011;1289;53.488;10.006;2023-12-04T09:46:55;37.30;;;21.93;;
2558;SDS011;1289;53.488;10.006;2023-12-04T09:49:22;26.60;;;17.47;;
2558;SDS011;1289;53.488;10.006;2023-12-04T09:51:50;30.83;;;19.73;;
2558;SDS011;1289;53.488;10.006;2023-12-04T09:54:17;29.97;;;20.40;;
2558;SDS011;1289;53.488;10.006;2023-12-04T09:56:44;33.10;;;18.23;;
2558;SDS011;1289;53.488;10.006;2023-12-04T09:59:12;32.13;;;19.47;;
2558;SDS011;1289;53.488;10.006;2023-12-04T10:01:40;33.30;;;19.57;;
2558;SDS011;1289;53.488;10.006;2023-12-04T10:04:06;36.93;;;20.00;;
2558;SDS011;1289;53.488;10.006;2023-12-04T10:06:34;29.93;;;16.63;;
2558;SDS011;1289;53.488;10.006;2023-12-04T10:09:04;25.47;;;16.83;;
2558;SDS011;1289;53.488;10.006;2023-12-04T10:11:39;26.67;;;17.20;;
2558;SDS011;1289;53.488;10.006;2023-12-04T10:14:13;27.70;;;17.03;;
2558;SDS011;1289;53.488;10.006;2023-12-04T10:16:40;26.40;;;16.23;;
2558;SDS011;1289;53.488;10.006;2023-12-04T10:19:17;28.20;;;17.47;;
2558;SDS011;1289;53.488;10.006;2023-12-04T10:21:45;28.07;;;18.27;;
2558;SDS011;1289;53.488;10.006;2023-12-04T10:24:14;26.73;;;16.23;;
2558;SDS011;1289;53.488;10.006;2023-12-04T10:26:53;25.57;;;16.10;;
2558;SDS011;1289;53.488;10.006;2023-12-04T10:29:20;23.30;;;16.20;;
2558;SDS011;1289;53.488;10.006;2023-12-04T10:31:46;26.03;;;17.53;;
2558;SDS011;1289;53.488;10.006;2023-12-04T10:34:15;25.23;;;18.17;;
2558;SDS011;1289;53.488;10.006;2023-12-04T10:36:42;29.13;;;16.70;;
2558;SDS011;1289;53.488;10.006;2023-12-04T10:39:10;23.70;;;15.10;;
2558;SDS011;1289;53.488;10.006;2023-12-04T10:41:40;27.40;;;18.27;;
2558;SDS011;1289;53.488;10.006;2023-12-04T10:44:07;22.50;;;15.60;;
2558;SDS011;1289;53.488;10.006;2023-12-04T10:46:34;22.60;;;16.70;;
2558;SDS011;1289;53.488;10.006;2023-12-04T10:49:02;23.07;;;17.40;;
2558;SDS011;1289;53.488;10.006;2023-12-04T10:51:30;24.93;;;16.93;;
2558;SDS011;1289;53.488;10.006;2023-12-04T10:53:57;27.37;;;17.00;;
2558;SDS011;1289;53.488;10.006;2023-12-04T10:56:25;20.10;;;14.10;;
2558;SDS011;1289;53.488;10.006;2023-12-04T10:58:55;25.63;;;16.77;;
2558;SDS011;1289;53.488;10.006;2023-12-04T11:01:24;22.20;;;14.80;;
2558;SDS011;1289;53.488;10.006;2023-12-04T11:03:51;21.57;;;14.70;;
2558;SDS011;1289;53.488;10.006;2023-12-04T11:06:20;27.20;;;16.97;;
2558;SDS011;1289;53.488;10.006;2023-12-04T11:08:48;23.10;;;16.53;;
2558;SDS011;1289;53.488;10.006;2023-12-04T11:11:18;21.33;;;14.37;;
2558;SDS011;1289;53.488;10.006;2023-12-04T11:13:48;23.80;;;15.37;;
2558;SDS011;1289;53.488;10.006;2023-12-04T11:16:18;20.07;;;14.30;;
2558;SDS011;1289;53.488;10.006;2023-12-04T11:18:48;21.70;;;16.40;;
2558;SDS011;1289;53.488;10.006;2023-12-04T11:21:18;21.77;;;13.93;;
2558;SDS011;1289;53.488;10.006;2023-12-04T11:23:45;20.63;;;15.20;;
2558;SDS011;1289;53.488;10.006;2023-12-04T11:26:12;21.93;;;14.77;;
2558;SDS011;1289;53.488;10.006;2023-12-04T11:28:38;17.50;;;13.13;;
2558;SDS011;1289;53.488;10.006;2023-12-04T11:31:05;20.37;;;14.10;;
2558;SDS011;1289;53.488;10.006;2023-12-04T11:33:35;18.77;;;13.20;;
2558;SDS011;1289;53.488;10.006;2023-12-04T11:36:06;20.10;;;13.77;;
2558;SDS011;1289;53.488;10.006;2023-12-04T11:38:34;21.17;;;14.40;;
2558;SDS011;1289;53.488;10.006;2023-12-04T11:41:06;23.57;;;13.40;;
2558;SDS011;1289;53.488;10.006;2023-12-04T11:43:40;17.10;;;13.60;;
2558;SDS011;1289;53.488;10.006;2023-12-04T11:46:08;20.10;;;14.30;;
2558;SDS011;1289;53.488;10.006;2023-12-04T11:48:37;18.53;;;13.23;;
2558;SDS011;1289;53.488;10.006;2023-12-04T11:51:05;21.40;;;14.93;;
2558;SDS011;1289;53.488;10.006;2023-12-04T11:53:33;20.67;;;13.93;;
2558;SDS011;1289;53.488;10.006;2023-12-04T11:56:08;23.67;;;13.93;;
2558;SDS011;1289;53.488;10.006;2023-12-04T11:58:41;19.50;;;14.40;;
2558;SDS011;1289;53.488;10.006;2023-12-04T12:01:08;17.87;;;13.33;;
2558;SDS011;1289;53.488;10.006;2023-12-04T12:03:35;23.53;;;15.27;;
2558;SDS011;1289;53.488;10.006;2023-12-04T12:06:03;19.30;;;12.83;;
2558;SDS011;1289;53.488;10.006;2023-12-04T12:08:30;20.10;;;12.87;;
2558;SDS011;1289;53.488;10.006;2023-12-04T12:10:56;24.37;;;15.13;;
2558;SDS011;1289;53.488;10.006;2023-12-04T12:13:23;23.80;;;14.20;;
2558;SDS011;1289;53.488;10.006;2023-12-04T12:15:51;17.20;;;13.10;;
2558;SDS011;1289;53.488;10.006;2023-12-04T12:18:17;21.60;;;14.67;;
2558;SDS011;1289;53.488;10.006;2023-12-04T12:20:44;16.77;;;12.50;;
2558;SDS011;1289;53.488;10.006;2023-12-04T12:23:12;21.47;;;15.30;;
2558;SDS011;1289;53.488;10.006;2023-12-04T12:25:39;21.30;;;15.10;;
2558;SDS011;1289;53.488;10.006;2023-12-04T12:28:06;24.13;;;16.43;;
2558;SDS011;1289;53.488;10.006;2023-12-04T12:30:33;17.93;;;13.00;;
2558;SDS011;1289;53.488;10.006;2023-12-04T12:32:59;18.67;;;14.20;;
2558;SDS011;1289;53.488;10.006;2023-12-04T12:35:26;22.63;;;15.10;;
2558;SDS011;1289;53.488;10.006;2023-12-04T12:37:52;19.97;;;15.37;;
2558;SDS011;1289;53.488;10.006;2023-12-04T12:40:21;18.10;;;13.40;;
2558;SDS011;1289;53.488;10.006;2023-12-04T12:42:48;18.63;;;14.23;;
2558;SDS011;1289;53.488;10.006;2023-12-04T12:45:16;18.40;;;13.97;;
2558;SDS011;1289;53.488;10.006;2023-12-04T12:47:43;18.07;;;13.27;;
2558;SDS011;1289;53.488;10.006;2023-12-04T12:50:11;20.87;;;13.87;;
2558;SDS011;1289;53.488;10.006;2023-12-04T12:52:38;19.20;;;14.73;;
2558;SDS011;1289;53.488;10.006;2023-12-04T12:55:05;20.47;;;13.93;;
2558;SDS011;1289;53.488;10.006;2023-12-04T12:57:33;19.93;;;14.17;;
2558;SDS011;1289;53.488;10.006;2023-12-04T13:00:00;18.40;;;13.20;;
2558;SDS011;1289;53.488;10.006;2023-12-04T13:02:27;18.90;;;13.80;;
2558;SDS011;1289;53.488;10.006;2023-12-04T13:04:53;21.67;;;14.73;;
2558;SDS011;1289;53.488;10.006;2023-12-04T13:07:20;23.00;;;13.50;;
2558;SDS011;1289;53.488;10.006;2023-12-04T13:09:46;20.10;;;13.70;;
2558;SDS011;1289;53.488;10.006;2023-12-04T13:12:13;19.67;;;14.77;;
2558;SDS011;1289;53.488;10.006;2023-12-04T13:14:41;20.17;;;13.80;;
2558;SDS011;1289;53.488;10.006;2023-12-04T13:17:08;20.33;;;13.17;;
2558;SDS011;1289;53.488;10.006;2023-12-04T13:19:35;20.10;;;15.27;;
2558;SDS011;1289;53.488;10.006;2023-12-04T13:22:02;18.40;;;13.90;;
2558;SDS011;1289;53.488;10.006;2023-12-04T13:24:29;20.77;;;14.80;;
2558;SDS011;1289;53.488;10.006;2023-12-04T13:26:56;21.77;;;13.40;;
2558;SDS011;1289;53.488;10.006;2023-12-04T13:29:22;21.83;;;16.23;;
2558;SDS011;1289;53.488;10.006;2023-12-04T13:31:50;20.03;;;14.77;;
2558;SDS011;1289;53.488;10.006;2023-12-04T13:34:18;20.30;;;14.17;;
2558;SDS011;1289;53.488;10.006;2023-12-04T13:36:44;27.27;;;16.73;;
2558;SDS011;1289;53.488;10.006;2023-12-04T13:39:11;23.73;;;15.03;;
2558;SDS011;1289;53.488;10.006;2023-12-04T13:41:45;18.50;;;13.70;;
2558;SDS011;1289;53.488;10.006;2023-12-04T13:44:29;22.07;;;15.47;;
2558;SDS011;1289;53.488;10.006;2023-12-04T13:46:57;21.50;;;15.10;;
2558;SDS011;1289;53.488;10.006;2023-12-04T13:49:24;21.13;;;14.83;;
2558;SDS011;1289;53.488;10.006;2023-12-04T13:51:50;25.20;;;16.20;;
2558;SDS011;1289;53.488;10.006;2023-12-04T13:54:18;19.47;;;13.30;;
2558;SDS011;1289;53.488;10.006;2023-12-04T13:56:47;20.63;;;15.60;;
2558;SDS011;1289;53.488;10.006;2023-12-04T13:59:19;26.87;;;15.40;;
2558;SDS011;1289;53.488;10.006;2023-12-04T14:01:46;22.03;;;14.60;;
2558;SDS011;1289;53.488;10.006;2023-12-04T14:04:16;20.80;;;14.13;;
2558;SDS011;1289;53.488;10.006;2023-12-04T14:06:42;25.13;;;16.63;;
2558;SDS011;1289;53.488;10.006;2023-12-04T14:09:10;22.70;;;15.37;;
2558;SDS011;1289;53.488;10.006;2023-12-04T14:11:39;22.47;;;15.67;;
2558;SDS011;1289;53.488;10.006;2023-12-04T14:14:09;21.13;;;14.60;;
2558;SDS011;1289;53.488;10.006;2023-12-04T14:16:35;21.00;;;14.93;;
2558;SDS011;1289;53.488;10.006;2023-12-04T14:19:02;20.90;;;14.50;;
2558;SDS011;1289;53.488;10.006;2023-12-04T14:21:31;23.70;;;15.90;;
2558;SDS011;1289;53.488;10.006;2023-12-04T14:23:57;26.53;;;16.80;;
2558;SDS011;1289;53.488;10.006;2023-12-04T14:26:25;16.00;;;12.77;;
2558;SDS011;1289;53.488;10.006;2023-12-04T14:28:52;22.80;;;16.13;;
2558;SDS011;1289;53.488;10.006;2023-12-04T14:31:19;20.17;;;14.80;;
2558;SDS011;1289;53.488;10.006;2023-12-04T14:33:46;23.27;;;15.80;;